Time;durP1;ratioP1;P1;durP2;ratioP2;P2;SDS_P1;SDS_P2;PMS_P1;PMS_P2;Temp;Humidity;BMP_temperature;BMP_pressure;BME280_temperature;BME280_humidity;BME280_pressure;Samples;Min_cycle;Max_cycle;Signal;HPM_P1;HPM_P2
2021/12/20 00:00:23;;;;;;;;;;;;;;;7.89;56.44;99557.38;4292024;33;20040;-82
2021/12/20 00:02:52;;;;;;;;;;;;;;;8.23;55.63;99555.56;4294575;33;20003;-81
2021/12/20 00:05:20;;;;;;;;;;;;;;;8.35;55.19;99558.34;4295177;33;20012;-82
2021/12/20 00:07:47;;;;;;;;;;;;;;;8.15;55.78;99554.50;4288159;33;19988;-81
2021/12/20 00:10:14;;;;;;;;;;;;;;;7.79;56.96;99560.59;4294373;33;19996;-82
2021/12/20 00:12:41;;;;;;;;;;;;;;;7.78;57.05;99561.41;4287818;33;19987;-82
2021/12/20 00:15:08;;;;;;;;;;;;;;;7.84;56.80;99564.13;4281009;33;19988;-83
2021/12/20 00:17:35;;;;;;;;;;;;;;;8.25;55.55;99559.00;4291371;33;20000;-82
2021/12/20 00:20:03;;;;;;;;;;;;;;;8.20;55.76;99552.91;4295891;33;19993;-81
2021/12/20 00:22:29;;;;;;;;;;;;;;;8.18;55.69;99559.72;4295664;33;20414;-82
2021/12/20 00:24:56;;;;;;;;;;;;;;;8.28;55.42;99556.50;4296565;33;19981;-82
2021/12/20 00:27:23;;;;;;;;;;;;;;;8.30;55.62;99554.84;4297575;33;19988;-81
2021/12/20 00:29:51;;;;;;;;;;;;;;;8.29;55.91;99560.81;4294751;33;20004;-81
2021/12/20 00:32:18;;;;;;;;;;;;;;;8.35;55.49;99553.19;4295582;33;20367;-81
2021/12/20 00:34:45;;;;;;;;;;;;;;;8.30;55.96;99549.69;4295458;33;20016;-82
2021/12/20 00:42:43;;;;;;;;;;;;;;;8.67;54.84;99560.72;4296750;33;20527;-81
2021/12/20 00:45:10;;;;;;;;;;;;;;;8.66;54.81;99563.31;4294363;33;19981;-82
2021/12/20 00:47:37;;;;;;;;;;;;;;;8.82;54.12;99566.19;4294735;33;20686;-82
2021/12/20 00:50:05;;;;;;;;;;;;;;;8.55;55.08;99571.72;4296639;33;20347;-82
2021/12/20 00:52:32;;;;;;;;;;;;;;;8.78;54.71;99569.56;4296500;33;20275;-82
2021/12/20 00:54:59;;;;;;;;;;;;;;;8.90;54.10;99580.94;4296297;33;20007;-82
2021/12/20 00:57:25;;;;;;;;;;;;;;;8.95;53.93;99597.41;4295405;33;19988;-82
2021/12/20 00:59:52;;;;;;;;;;;;;;;8.62;54.39;99598.50;4295650;33;19984;-82
2021/12/20 01:02:19;;;;;;;;;;;;;;;8.84;54.03;99590.31;4296688;33;19989;-82
2021/12/20 01:04:46;;;;;;;;;;;;;;;8.55;55.03;99594.94;4294715;33;19988;-83
2021/12/20 01:07:13;;;;;;;;;;;;;;;8.80;53.97;99598.84;4290070;33;19988;-81
2021/12/20 01:09:39;;;;;;;;;;;;;;;8.41;55.21;99605.78;4296317;33;19985;-81
2021/12/20 01:12:08;;;;;;;;;;;;;;;8.40;55.37;99601.47;4296421;33;19988;-83
2021/12/20 01:14:37;;;;;;;;;;;;;;;8.45;55.43;99610.16;4296397;33;20357;-82
2021/12/20 01:17:05;;;;;;;;;;;;;;;8.37;55.81;99623.75;4296499;33;20431;-82
2021/12/20 01:19:33;;;;;;;;;;;;;;;8.67;54.96;99622.66;4295959;33;19995;-83
2021/12/20 01:22:00;;;;;;;;;;;;;;;8.66;55.22;99620.94;4295482;33;20382;-83
2021/12/20 01:24:27;;;;;;;;;;;;;;;8.29;56.14;99627.84;4295484;33;20005;-81
2021/12/20 01:26:53;;;;;;;;;;;;;;;8.40;55.89;99633.28;4296186;33;20457;-81
2021/12/20 01:29:21;;;;;;;;;;;;;;;8.29;56.52;99635.59;4295716;33;21402;-82
2021/12/20 01:31:47;;;;;;;;;;;;;;;8.32;56.52;99643.37;4295888;33;20280;-81
2021/12/20 01:34:14;;;;;;;;;;;;;;;8.19;57.02;99633.66;4295504;33;20037;-83
2021/12/20 01:36:41;;;;;;;;;;;;;;;8.38;56.46;99640.97;4296533;33;19984;-82
2021/12/20 01:39:08;;;;;;;;;;;;;;;8.22;57.37;99636.28;4295298;33;20335;-83
2021/12/20 01:41:42;;;;;;;;;;;;;;;8.18;57.94;99626.75;4296718;33;19980;-81
2021/12/20 01:44:09;;;;;;;;;;;;;;;8.40;56.91;99620.41;4295133;33;19993;-83
2021/12/20 01:46:36;;;;;;;;;;;;;;;8.57;56.67;99605.25;4296200;33;20002;-82
2021/12/20 01:49:05;;;;;;;;;;;;;;;8.70;56.11;99611.53;4295519;33;19992;-82
2021/12/20 01:51:50;;;;;;;;;;;;;;;8.71;55.85;99614.16;4296307;33;20391;-82
2021/12/20 01:54:17;;;;;;;;;;;;;;;8.16;57.55;99625.84;4295958;33;19985;-79
2021/12/20 01:56:45;;;;;;;;;;;;;;;8.49;56.44;99612.00;4295956;33;19998;-82
2021/12/20 01:59:12;;;;;;;;;;;;;;;8.17;57.70;99619.87;4294839;33;20036;-82
2021/12/20 02:01:46;;;;;;;;;;;;;;;8.04;58.09;99629.03;4295122;33;20024;-82
2021/12/20 02:04:13;;;;;;;;;;;;;;;8.06;58.10;99641.94;4294416;33;19977;-82
2021/12/20 02:06:45;;;;;;;;;;;;;;;8.45;56.87;99647.12;4294463;33;20304;-82
2021/12/20 02:09:13;;;;;;;;;;;;;;;8.38;57.07;99635.81;4294829;33;20003;-83
2021/12/20 02:11:40;;;;;;;;;;;;;;;8.22;57.45;99644.03;4294192;33;19999;-83
2021/12/20 02:14:08;;;;;;;;;;;;;;;8.01;58.32;99646.12;4294338;33;19997;-81
2021/12/20 02:16:35;;;;;;;;;;;;;;;8.26;57.37;99653.56;4296202;33;19984;-84
2021/12/20 02:19:02;;;;;;;;;;;;;;;8.41;56.78;99650.50;4295269;33;20408;-82
2021/12/20 02:21:30;;;;;;;;;;;;;;;8.43;56.49;99653.13;4295853;33;19977;-82
2021/12/20 02:23:57;;;;;;;;;;;;;;;8.12;57.54;99653.28;4295770;33;19981;-82
2021/12/20 02:26:24;;;;;;;;;;;;;;;8.23;57.26;99674.16;4295459;33;20006;-82
2021/12/20 02:28:56;;;;;;;;;;;;;;;8.12;57.57;99668.72;4294584;33;19988;-82
2021/12/20 02:39:23;;;;;;;;;;;;;;;7.99;57.24;99671.88;4287506;33;20034;-82
2021/12/20 02:41:50;;;;;;;;;;;;;;;8.15;56.29;99667.94;4287256;33;19994;-82
2021/12/20 02:44:19;;;;;;;;;;;;;;;7.90;57.02;99672.50;4294020;33;20341;-82
2021/12/20 02:47:08;;;;;;;;;;;;;;;8.03;56.69;99688.28;4294409;33;19996;-82
2021/12/20 02:49:36;;;;;;;;;;;;;;;8.18;56.23;99680.91;4293441;33;20042;-82
2021/12/20 02:52:06;;;;;;;;;;;;;;;8.32;55.35;99682.06;4295612;33;19981;-82
2021/12/20 02:54:33;;;;;;;;;;;;;;;8.26;55.51;99687.09;4295749;33;19984;-82
2021/12/20 02:57:01;;;;;;;;;;;;;;;8.43;54.99;99699.56;4295839;33;20034;-82
2021/12/20 02:59:27;;;;;;;;;;;;;;;8.42;54.90;99708.09;4294233;33;19989;-82
2021/12/20 03:01:55;;;;;;;;;;;;;;;8.38;54.90;99702.88;4295294;33;19977;-82
2021/12/20 03:04:23;;;;;;;;;;;;;;;8.38;54.75;99709.75;4294886;33;20501;-82
2021/12/20 03:06:52;;;;;;;;;;;;;;;8.25;55.10;99705.97;4294812;33;20028;-82
2021/12/20 03:09:21;;;;;;;;;;;;;;;8.31;54.81;99721.59;4295399;33;20066;-81
2021/12/20 03:11:51;;;;;;;;;;;;;;;8.42;54.45;99708.09;4295176;33;20003;-82
2021/12/20 03:14:25;;;;;;;;;;;;;;;8.44;54.01;99716.75;4294422;33;19988;-81
2021/12/20 03:16:52;;;;;;;;;;;;;;;8.27;54.41;99713.78;4295041;33;20006;-82
2021/12/20 03:19:19;;;;;;;;;;;;;;;8.35;54.12;99705.34;4295310;33;19996;-84
2021/12/20 03:21:45;;;;;;;;;;;;;;;8.11;54.78;99704.81;4294235;33;20036;-82
2021/12/20 03:24:12;;;;;;;;;;;;;;;8.25;54.19;99700.81;4293858;33;20033;-81
2021/12/20 03:26:39;;;;;;;;;;;;;;;7.97;54.82;99698.44;4295688;33;20000;-82
2021/12/20 03:29:06;;;;;;;;;;;;;;;7.83;54.67;99706.69;4295063;33;20035;-81
2021/12/20 03:31:33;;;;;;;;;;;;;;;8.05;54.06;99712.37;4295078;33;19977;-84
2021/12/20 03:34:00;;;;;;;;;;;;;;;8.02;53.94;99712.31;4302343;33;20059;-83
2021/12/20 03:36:26;;;;;;;;;;;;;;;7.52;55.26;99709.34;4320760;33;19995;-82
2021/12/20 03:38:53;;;;;;;;;;;;;;;7.56;54.96;99711.16;4309555;33;19992;-83
2021/12/20 03:41:20;;;;;;;;;;;;;;;7.80;54.04;99722.09;4308915;33;20538;-83
2021/12/20 03:43:47;;;;;;;;;;;;;;;7.79;54.06;99720.34;4308497;33;20052;-82
2021/12/20 03:46:14;;;;;;;;;;;;;;;7.30;55.07;99713.91;4306592;33;20067;-82
2021/12/20 03:48:41;;;;;;;;;;;;;;;7.19;55.29;99720.47;4306689;33;20046;-82
2021/12/20 03:51:08;;;;;;;;;;;;;;;7.68;53.62;99732.06;4309549;33;19976;-82
2021/12/20 03:53:35;;;;;;;;;;;;;;;7.52;53.95;99740.25;4317742;33;20015;-83
2021/12/20 03:56:03;;;;;;;;;;;;;;;7.49;54.39;99735.00;4309968;33;20027;-82
2021/12/20 03:58:30;;;;;;;;;;;;;;;7.72;53.54;99744.19;4302367;33;20004;-83
2021/12/20 04:00:58;;;;;;;;;;;;;;;7.69;53.91;99759.59;4322708;33;20427;-82
2021/12/20 04:03:25;;;;;;;;;;;;;;;7.79;53.30;99765.88;4323646;33;19988;-82
2021/12/20 04:05:53;;;;;;;;;;;;;;;7.88;52.98;99761.81;4306268;33;20032;-83
2021/12/20 04:08:20;;;;;;;;;;;;;;;7.90;52.57;99754.97;4295570;33;19988;-81
2021/12/20 04:10:47;;;;;;;;;;;;;;;7.75;53.01;99753.72;4295338;33;19999;-81
2021/12/20 04:13:13;;;;;;;;;;;;;;;7.76;52.60;99761.50;4296765;33;20001;-82
2021/12/20 04:15:40;;;;;;;;;;;;;;;7.84;52.58;99765.13;4297422;33;20032;-83
2021/12/20 04:18:07;;;;;;;;;;;;;;;7.76;52.41;99766.66;4296537;33;20048;-82
2021/12/20 04:20:34;;;;;;;;;;;;;;;7.61;53.03;99761.09;4296112;33;19984;-79
2021/12/20 04:23:00;;;;;;;;;;;;;;;7.59;52.77;99752.44;4297535;33;19985;-81
2021/12/20 04:25:27;;;;;;;;;;;;;;;7.57;52.93;99751.53;4296528;33;19985;-82
2021/12/20 04:27:54;;;;;;;;;;;;;;;7.53;52.56;99757.44;4295288;33;19988;-83
2021/12/20 04:30:22;;;;;;;;;;;;;;;7.36;53.15;99760.41;4295090;33;20017;-82
2021/12/20 04:32:49;;;;;;;;;;;;;;;7.32;52.97;99763.75;4296360;33;19984;-82
2021/12/20 04:35:16;;;;;;;;;;;;;;;7.27;53.30;99770.47;4297161;33;20044;-82
2021/12/20 04:37:45;;;;;;;;;;;;;;;7.04;53.88;99771.50;4294997;33;20378;-81
2021/12/20 04:40:18;;;;;;;;;;;;;;;7.33;52.88;99773.22;4296196;33;20047;-82
2021/12/20 04:42:45;;;;;;;;;;;;;;;7.41;52.71;99789.75;4297083;33;20303;-82
2021/12/20 04:45:12;;;;;;;;;;;;;;;7.30;52.83;99775.69;4294680;33;20006;-83
2021/12/20 04:47:39;;;;;;;;;;;;;;;7.29;52.73;99778.25;4296796;33;19997;-83
2021/12/20 04:50:06;;;;;;;;;;;;;;;7.08;53.33;99793.94;4297019;33;19988;-80
2021/12/20 04:52:33;;;;;;;;;;;;;;;7.05;53.09;99788.69;4294892;33;19981;-84
2021/12/20 04:55:00;;;;;;;;;;;;;;;7.22;52.45;99777.19;4295857;33;20754;-82
2021/12/20 04:57:26;;;;;;;;;;;;;;;6.96;52.94;99789.31;4296275;33;20385;-82
2021/12/20 04:59:53;;;;;;;;;;;;;;;7.04;52.81;99797.25;4285756;33;20015;-83
2021/12/20 05:02:20;;;;;;;;;;;;;;;7.18;52.14;99795.97;4282168;33;20335;-83
2021/12/20 05:04:47;;;;;;;;;;;;;;;7.30;51.28;99796.28;4280555;33;19989;-84
2021/12/20 05:07:14;;;;;;;;;;;;;;;6.86;52.59;99803.59;4281758;33;20091;-82
2021/12/20 05:09:42;;;;;;;;;;;;;;;6.81;52.74;99805.16;4281496;33;20002;-83
2021/12/20 05:12:11;;;;;;;;;;;;;;;6.86;52.54;99820.72;4282182;33;20278;-83
2021/12/20 05:14:40;;;;;;;;;;;;;;;6.99;52.05;99816.00;4282317;33;20026;-83
2021/12/20 05:17:07;;;;;;;;;;;;;;;6.98;51.84;99827.09;4279852;33;20011;-82
2021/12/20 05:19:34;;;;;;;;;;;;;;;6.86;51.93;99831.91;4281057;33;20008;-83
2021/12/20 05:22:01;;;;;;;;;;;;;;;7.22;50.92;99836.41;4280469;33;20007;-83
2021/12/20 05:24:28;;;;;;;;;;;;;;;7.31;50.44;99834.09;4281780;33;20032;-83
2021/12/20 05:26:55;;;;;;;;;;;;;;;7.04;50.73;99843.56;4282310;33;19993;-83
2021/12/20 05:29:23;;;;;;;;;;;;;;;7.21;50.49;99847.50;4280856;33;19976;-82
2021/12/20 05:31:50;;;;;;;;;;;;;;;7.03;50.80;99852.12;4281583;33;20009;-81
2021/12/20 05:34:17;;;;;;;;;;;;;;;6.96;50.77;99851.94;4281909;33;20811;-84
2021/12/20 05:36:44;;;;;;;;;;;;;;;6.92;50.58;99850.13;4281881;33;20315;-84
2021/12/20 05:39:11;;;;;;;;;;;;;;;7.13;50.01;99841.28;4282286;33;20032;-84
2021/12/20 05:41:38;;;;;;;;;;;;;;;6.94;50.58;99848.44;4280249;33;19997;-83
2021/12/20 05:44:05;;;;;;;;;;;;;;;6.85;50.70;99863.59;4281814;33;20011;-83
2021/12/20 05:46:32;;;;;;;;;;;;;;;7.11;50.10;99860.94;4280870;33;20044;-84
2021/12/20 05:48:59;;;;;;;;;;;;;;;7.03;49.85;99868.44;4281495;33;20052;-83
2021/12/20 05:51:29;;;;;;;;;;;;;;;7.12;49.66;99862.72;4280652;33;19989;-81
2021/12/20 05:53:55;;;;;;;;;;;;;;;7.19;49.02;99865.50;4280318;33;19997;-82
2021/12/20 05:56:22;;;;;;;;;;;;;;;7.17;49.46;99876.56;4282022;33;20051;-83
2021/12/20 05:58:49;;;;;;;;;;;;;;;7.38;48.55;99881.50;4281952;33;19981;-82
2021/12/20 06:01:16;;;;;;;;;;;;;;;7.38;47.98;99882.38;4281221;33;20557;-84
2021/12/20 06:03:43;;;;;;;;;;;;;;;7.15;48.99;99883.41;4282175;33;19981;-83
2021/12/20 06:06:11;;;;;;;;;;;;;;;7.23;48.56;99890.50;4280977;33;20016;-83
2021/12/20 06:08:38;;;;;;;;;;;;;;;7.32;47.97;99886.47;4275872;33;19972;-81
2021/12/20 06:11:05;;;;;;;;;;;;;;;7.05;48.70;99891.63;4279743;33;19982;-85
2021/12/20 06:13:32;;;;;;;;;;;;;;;6.80;49.18;99900.31;4280679;33;19992;-83
2021/12/20 06:15:58;;;;;;;;;;;;;;;6.94;48.67;99899.91;4280292;33;19988;-80
2021/12/20 06:18:25;;;;;;;;;;;;;;;7.03;48.22;99895.88;4279139;33;20424;-83
2021/12/20 06:20:52;;;;;;;;;;;;;;;7.09;48.22;99898.66;4281542;33;20041;-80
2021/12/20 06:23:19;;;;;;;;;;;;;;;7.21;47.51;99909.28;4281820;33;20770;-82
2021/12/20 06:25:46;;;;;;;;;;;;;;;6.83;48.40;99919.28;4280511;33;19980;-81
2021/12/20 06:28:12;;;;;;;;;;;;;;;7.03;47.63;99914.78;4281740;33;20335;-81
2021/12/20 06:30:39;;;;;;;;;;;;;;;6.91;48.21;99922.09;4280727;33;20008;-82
2021/12/20 06:33:06;;;;;;;;;;;;;;;7.07;47.40;99918.31;4280763;33;19993;-80
2021/12/20 06:35:34;;;;;;;;;;;;;;;6.64;48.61;99927.22;4280249;33;20059;-80
2021/12/20 06:38:02;;;;;;;;;;;;;;;6.80;48.06;99933.75;4281904;33;19977;-81
2021/12/20 06:40:30;;;;;;;;;;;;;;;6.64;48.25;99924.66;4291512;33;20734;-81
2021/12/20 06:42:57;;;;;;;;;;;;;;;6.86;47.79;99932.25;4272690;33;20045;-82
2021/12/20 06:45:24;;;;;;;;;;;;;;;6.81;48.47;99933.78;4274763;33;20000;-81
2021/12/20 06:47:51;;;;;;;;;;;;;;;7.01;47.51;99926.69;4268959;33;19984;-77
2021/12/20 06:50:18;;;;;;;;;;;;;;;6.93;47.87;99934.19;4275927;33;20068;-78
2021/12/20 06:52:45;;;;;;;;;;;;;;;7.11;46.95;99948.47;4278083;33;19989;-79
2021/12/20 06:55:12;;;;;;;;;;;;;;;7.32;47.17;99954.28;4277067;33;20013;-78
2021/12/20 06:57:42;;;;;;;;;;;;;;;7.41;46.21;99948.53;4277404;33;21058;-79
2021/12/20 07:00:09;;;;;;;;;;;;;;;7.51;45.90;99940.25;4287758;33;19996;-78
2021/12/20 07:02:36;;;;;;;;;;;;;;;7.70;45.38;99941.69;4277634;33;19984;-77
2021/12/20 07:05:03;;;;;;;;;;;;;;;7.71;45.48;99938.28;4277730;33;20005;-79
2021/12/20 07:07:31;;;;;;;;;;;;;;;8.06;43.96;99946.13;4274972;33;20020;-78
2021/12/20 07:09:58;;;;;;;;;;;;;;;7.99;44.70;99959.69;4277212;33;19993;-78
2021/12/20 07:12:25;;;;;;;;;;;;;;;8.00;44.34;99961.41;4264069;33;19989;-78
2021/12/20 07:14:51;;;;;;;;;;;;;;;7.91;44.49;99957.78;4275023;33;19992;-79
2021/12/20 07:17:18;;;;;;;;;;;;;;;8.06;43.95;99959.03;4275307;33;20040;-77
2021/12/20 07:19:45;;;;;;;;;;;;;;;8.02;44.37;99960.66;4276574;33;20101;-80
2021/12/20 07:22:12;;;;;;;;;;;;;;;8.09;43.95;99951.38;4276626;33;19992;-80
2021/12/20 07:24:39;;;;;;;;;;;;;;;7.95;43.68;99952.72;4273566;33;20406;-78
2021/12/20 07:27:07;;;;;;;;;;;;;;;7.78;43.69;99944.47;4287028;33;20250;-83
2021/12/20 07:29:34;;;;;;;;;;;;;;;7.62;44.42;99949.16;4283994;33;20008;-78
2021/12/20 07:32:01;;;;;;;;;;;;;;;7.51;44.95;99949.69;4277469;33;20019;-78
2021/12/20 07:34:27;;;;;;;;;;;;;;;7.59;45.10;99955.94;4278460;33;19985;-80
2021/12/20 07:36:54;;;;;;;;;;;;;;;7.88;44.77;99947.37;4277170;33;20053;-79
2021/12/20 07:39:21;;;;;;;;;;;;;;;7.70;44.95;99936.53;4272033;33;19989;-82
2021/12/20 07:41:51;;;;;;;;;;;;;;;7.77;45.00;99938.44;4277973;33;19999;-94
2021/12/20 07:44:19;;;;;;;;;;;;;;;7.99;44.50;99939.06;4277719;33;19992;-82
2021/12/20 07:46:46;;;;;;;;;;;;;;;7.93;44.57;99930.31;4273860;33;21798;-76
2021/12/20 07:49:13;;;;;;;;;;;;;;;7.86;44.54;99937.84;4272912;33;20034;-77
2021/12/20 07:51:39;;;;;;;;;;;;;;;7.73;44.88;99946.94;4133012;33;5089914;-79
2021/12/20 07:56:39;;;;;;;;;;;;;;;7.84;45.38;99944.66;4276990;33;20016;-78
2021/12/20 07:59:07;;;;;;;;;;;;;;;7.29;46.32;99951.62;4277726;33;21094;-77
2021/12/20 08:01:34;;;;;;;;;;;;;;;7.51;46.12;99952.28;4278694;33;20008;-76
2021/12/20 08:04:02;;;;;;;;;;;;;;;7.69;45.61;99956.28;4277310;33;19997;-78
2021/12/20 08:06:29;;;;;;;;;;;;;;;8.15;44.65;99962.72;4273712;33;20344;-77
2021/12/20 08:08:56;;;;;;;;;;;;;;;8.01;45.55;99963.16;4263836;33;20044;-77
2021/12/20 08:11:24;;;;;;;;;;;;;;;8.40;44.63;99962.56;4273870;33;19984;-76
2021/12/20 08:13:51;;;;;;;;;;;;;;;8.23;44.89;99962.97;4277486;33;20003;-76
2021/12/20 08:16:19;;;;;;;;;;;;;;;8.23;45.35;99964.63;4276241;33;20018;-74
2021/12/20 08:18:47;;;;;;;;;;;;;;;8.47;44.45;99962.75;4272849;33;19989;-76
2021/12/20 08:21:15;;;;;;;;;;;;;;;8.57;43.99;99961.28;4275303;33;19989;-79
2021/12/20 08:23:43;;;;;;;;;;;;;;;8.90;42.91;99952.66;4276667;33;20065;-78
2021/12/20 08:26:11;;;;;;;;;;;;;;;8.57;43.21;99962.16;4288127;33;20021;-79
2021/12/20 08:28:38;;;;;;;;;;;;;;;8.65;43.69;99969.22;4290709;33;19999;-79
2021/12/20 08:31:06;;;;;;;;;;;;;;;8.41;43.74;99959.16;4285429;33;20004;-78
2021/12/20 08:33:37;;;;;;;;;;;;;;;8.45;42.98;99960.97;4287013;33;20032;-78
2021/12/20 08:36:05;;;;;;;;;;;;;;;7.89;44.81;99959.41;4286148;33;19997;-79
2021/12/20 08:38:33;;;;;;;;;;;;;;;8.76;42.03;99963.50;4296634;33;20016;-78
2021/12/20 08:41:00;;;;;;;;;;;;;;;8.72;42.08;99961.69;4279040;33;20044;-77
2021/12/20 08:43:28;;;;;;;;;;;;;;;9.11;40.97;99966.09;4304225;33;20075;-79
2021/12/20 08:45:59;;;;;;;;;;;;;;;8.64;42.35;99963.19;4301417;33;20330;-79
2021/12/20 08:48:27;;;;;;;;;;;;;;;8.55;41.50;99971.59;4285819;33;20055;-77
2021/12/20 08:50:54;;;;;;;;;;;;;;;8.65;42.05;99970.13;4295999;33;19987;-78
2021/12/20 08:53:20;;;;;;;;;;;;;;;8.67;42.26;99968.44;4308548;33;19989;-79
2021/12/20 08:55:47;;;;;;;;;;;;;;;9.06;42.21;99957.34;4292342;33;20449;-79
2021/12/20 08:58:14;;;;;;;;;;;;;;;8.84;41.28;99949.09;4292352;33;19996;-79
2021/12/20 09:00:41;;;;;;;;;;;;;;;8.99;40.77;99950.28;4292193;33;20040;-80
2021/12/20 09:03:09;;;;;;;;;;;;;;;8.60;42.34;99956.22;4292439;33;20044;-79
2021/12/20 09:05:37;;;;;;;;;;;;;;;8.55;42.61;99962.94;4291305;33;20053;-80
2021/12/20 09:08:04;;;;;;;;;;;;;;;9.09;41.26;99972.91;4302544;33;20375;-79
2021/12/20 09:10:32;;;;;;;;;;;;;;;9.00;41.98;99977.87;4292631;33;20032;-81
2021/12/20 09:12:58;;;;;;;;;;;;;;;9.39;40.02;99987.41;4287036;33;19996;-81
2021/12/20 09:15:28;;;;;;;;;;;;;;;9.41;39.99;99985.72;4292930;33;19994;-81
2021/12/20 09:17:56;;;;;;;;;;;;;;;9.71;39.61;99976.06;4255662;33;20037;-80
2021/12/20 09:20:25;;;;;;;;;;;;;;;9.70;39.75;99979.50;4262973;33;19989;-80
2021/12/20 09:22:53;;;;;;;;;;;;;;;9.54;39.38;99978.28;4249758;33;19982;-79
2021/12/20 09:25:24;;;;;;;;;;;;;;;9.38;40.82;99980.47;4260203;33;19993;-81
2021/12/20 09:27:51;;;;;;;;;;;;;;;9.45;39.62;99977.22;4249245;33;20041;-81
2021/12/20 09:30:18;;;;;;;;;;;;;;;9.32;39.69;99976.06;4255638;33;20387;-82
2021/12/20 09:32:47;;;;;;;;;;;;;;;9.45;39.45;99991.00;4245778;33;20017;-80
2021/12/20 09:35:14;;;;;;;;;;;;;;;9.83;38.54;99971.97;4289552;33;19988;-86
2021/12/20 09:37:41;;;;;;;;;;;;;;;9.52;39.17;99979.09;4288104;33;19993;-80
2021/12/20 09:40:13;;;;;;;;;;;;;;;9.90;38.49;99967.00;4292184;33;20356;-78
2021/12/20 09:42:47;;;;;;;;;;;;;;;10.08;37.74;99966.47;4292725;33;19999;-78
2021/12/20 09:45:18;;;;;;;;;;;;;;;10.02;38.03;99961.22;4290103;33;20192;-78
2021/12/20 09:47:45;;;;;;;;;;;;;;;9.70;37.91;99964.00;4292138;33;20020;-80
2021/12/20 09:50:12;;;;;;;;;;;;;;;9.50;37.81;99960.09;4292355;33;20712;-80
2021/12/20 09:52:41;;;;;;;;;;;;;;;9.63;38.20;99961.22;4290889;33;20366;-83
2021/12/20 09:55:08;;;;;;;;;;;;;;;9.27;40.05;99963.03;4291296;33;20010;-81
2021/12/20 09:57:35;;;;;;;;;;;;;;;9.00;39.71;99958.09;4291645;33;19993;-82
2021/12/20 10:00:08;;;;;;;;;;;;;;;9.01;39.08;99961.53;4288883;33;20405;-81
2021/12/20 10:02:43;;;;;;;;;;;;;;;9.28;39.11;99957.03;4302072;33;19992;-80
2021/12/20 10:05:11;;;;;;;;;;;;;;;9.34;39.81;99953.69;4292191;33;19991;-83
2021/12/20 10:07:39;;;;;;;;;;;;;;;9.21;38.69;99957.72;4292027;33;21000;-80
2021/12/20 10:10:07;;;;;;;;;;;;;;;8.51;40.57;99966.28;4293023;33;19988;-79
2021/12/20 10:12:34;;;;;;;;;;;;;;;8.81;40.19;99964.50;4292825;33;20003;-79
2021/12/20 10:15:03;;;;;;;;;;;;;;;8.89;39.59;99959.53;4290362;33;19985;-81
2021/12/20 10:17:49;;;;;;;;;;;;;;;8.58;40.36;99963.03;4292434;33;19984;-81
2021/12/20 10:20:18;;;;;;;;;;;;;;;8.10;41.67;99978.87;4291884;33;19972;-81
2021/12/20 10:22:44;;;;;;;;;;;;;;;8.44;41.38;99977.28;4278326;33;20047;-80
2021/12/20 10:25:28;;;;;;;;;;;;;;;8.83;40.29;99980.88;4292611;33;19988;-78
2021/12/20 10:28:03;;;;;;;;;;;;;;;8.15;42.76;99982.47;4288713;33;20825;-82
2021/12/20 10:30:31;;;;;;;;;;;;;;;8.68;40.86;99982.19;4293951;33;20023;-82
2021/12/20 10:32:59;;;;;;;;;;;;;;;8.27;42.02;99993.16;4290977;33;20382;-81
2021/12/20 10:35:27;;;;;;;;;;;;;;;8.15;42.88;99997.94;4286287;33;20033;-80
2021/12/20 10:38:04;;;;;;;;;;;;;;;8.45;42.50;100007.41;4301012;33;20054;-81
2021/12/20 10:40:32;;;;;;;;;;;;;;;8.50;42.80;99990.34;4293256;33;20048;-82
2021/12/20 10:43:02;;;;;;;;;;;;;;;8.98;40.62;100002.78;4292110;33;20383;-82
2021/12/20 10:45:29;;;;;;;;;;;;;;;8.87;41.59;100006.78;4290321;33;20402;-80
2021/12/20 10:47:57;;;;;;;;;;;;;;;8.76;41.93;100004.78;4295028;33;20032;-82
2021/12/20 10:50:23;;;;;;;;;;;;;;;8.16;42.98;100010.00;4291800;33;20816;-82
2021/12/20 10:52:51;;;;;;;;;;;;;;;8.82;41.05;100015.28;4295404;33;19993;-84
2021/12/20 10:55:34;;;;;;;;;;;;;;;8.40;42.46;100009.87;4291661;33;20036;-83
2021/12/20 10:58:23;;;;;;;;;;;;;;;8.60;41.47;100023.28;4302527;33;20000;-83
2021/12/20 11:01:02;;;;;;;;;;;;;;;8.55;41.67;100014.53;4292186;33;20515;-83
2021/12/20 11:03:35;;;;;;;;;;;;;;;8.12;43.38;100013.34;4293586;33;20036;-83
2021/12/20 11:11:20;;;;;;;;;;;;;;;8.22;43.49;100005.03;4298798;33;20002;-89
2021/12/20 11:13:47;;;;;;;;;;;;;;;8.14;44.36;100001.38;4295729;33;20040;-87
2021/12/20 11:16:25;;;;;;;;;;;;;;;8.40;43.04;100001.25;4299235;33;19997;-85
2021/12/20 11:19:04;;;;;;;;;;;;;;;8.30;44.13;99995.81;4296194;33;20345;-81
2021/12/20 11:21:31;;;;;;;;;;;;;;;8.35;42.75;99996.78;4295347;33;19984;-83
2021/12/20 11:24:01;;;;;;;;;;;;;;;8.58;41.67;99994.88;3996423;33;10000318;-82
2021/12/20 11:26:28;;;;;;;;;;;;;;;8.30;43.37;100003.53;4289421;33;19996;-83
2021/12/20 11:28:56;;;;;;;;;;;;;;;8.16;43.22;100000.56;4297595;33;19988;-84
2021/12/20 11:31:23;;;;;;;;;;;;;;;8.51;43.43;100007.56;4288305;33;20004;-84
2021/12/20 11:33:50;;;;;;;;;;;;;;;8.54;42.30;100002.50;4303467;33;19996;-87
2021/12/20 11:36:18;;;;;;;;;;;;;;;8.00;44.21;100012.97;4292932;33;19981;-83
2021/12/20 11:38:45;;;;;;;;;;;;;;;8.34;42.89;100005.38;4292079;33;20032;-84
2021/12/20 11:41:12;;;;;;;;;;;;;;;8.11;43.78;99996.13;4287998;33;20004;-80
2021/12/20 11:43:38;;;;;;;;;;;;;;;8.41;42.18;100008.16;4293603;33;20375;-79
2021/12/20 11:46:05;;;;;;;;;;;;;;;8.58;42.25;100014.63;4291932;33;19993;-82
2021/12/20 11:48:32;;;;;;;;;;;;;;;8.40;42.35;100022.75;4291737;33;20721;-79
2021/12/20 11:50:59;;;;;;;;;;;;;;;8.37;43.07;100020.06;4293326;33;20009;-79
2021/12/20 11:53:26;;;;;;;;;;;;;;;8.77;41.69;100018.56;4289525;33;20047;-81
2021/12/20 11:55:53;;;;;;;;;;;;;;;8.72;41.43;100017.59;4290901;33;20579;-80
2021/12/20 11:58:21;;;;;;;;;;;;;;;9.01;41.90;100016.63;4296224;33;19988;-80
2021/12/20 12:00:49;;;;;;;;;;;;;;;9.13;41.73;100005.75;4301215;33;20030;-80
2021/12/20 12:03:27;;;;;;;;;;;;;;;9.48;40.36;100014.31;4292415;33;19988;-81
2021/12/20 12:05:55;;;;;;;;;;;;;;;9.35;40.97;100016.56;4281014;33;19980;-84
2021/12/20 12:08:22;;;;;;;;;;;;;;;9.36;42.38;100008.00;4282177;33;20007;-81
2021/12/20 12:10:50;;;;;;;;;;;;;;;9.50;40.96;100016.94;4286192;33;20433;-80
2021/12/20 12:13:18;;;;;;;;;;;;;;;9.53;41.33;100011.84;4296606;33;20486;-80
2021/12/20 12:16:00;;;;;;;;;;;;;;;9.38;39.73;100011.47;4294002;33;20073;-80
2021/12/20 12:18:44;;;;;;;;;;;;;;;9.34;39.84;100017.41;4300729;33;19991;-79
2021/12/20 12:21:30;;;;;;;;;;;;;;;8.84;40.56;100008.47;3720248;33;20004112;-82
2021/12/20 12:24:14;;;;;;;;;;;;;;;9.02;40.09;100007.16;4309393;33;20319;-81
2021/12/20 12:26:43;;;;;;;;;;;;;;;8.96;40.90;100012.19;4305597;33;19980;-81
2021/12/20 12:29:22;;;;;;;;;;;;;;;8.71;41.25;100006.41;4299597;33;20028;-81
2021/12/20 12:31:52;;;;;;;;;;;;;;;8.52;41.26;100010.19;4316135;33;20604;-79
2021/12/20 12:34:19;;;;;;;;;;;;;;;8.13;42.64;100015.94;4308676;33;19988;-81
2021/12/20 12:37:12;;;;;;;;;;;;;;;8.75;41.59;100010.81;4266104;33;20208;-80
2021/12/20 12:39:39;;;;;;;;;;;;;;;8.43;42.46;100011.66;4252388;33;20763;-81
2021/12/20 12:42:06;;;;;;;;;;;;;;;8.94;40.91;100008.69;4254427;33;19985;-81
2021/12/20 12:44:33;;;;;;;;;;;;;;;8.65;42.18;100021.72;4282710;33;20702;-80
2021/12/20 12:47:03;;;;;;;;;;;;;;;9.26;40.66;100022.41;4297670;33;20575;-81
2021/12/20 12:49:32;;;;;;;;;;;;;;;9.25;39.43;100020.63;4299739;33;20031;-81
2021/12/20 12:51:59;;;;;;;;;;;;;;;9.04;38.94;100031.31;4288898;33;20073;-81
2021/12/20 12:54:53;;;;;;;;;;;;;;;9.20;38.92;100022.25;4283784;33;19998;-80
2021/12/20 12:57:20;;;;;;;;;;;;;;;8.96;38.72;100027.66;4286784;33;20002;-80
2021/12/20 12:59:47;;;;;;;;;;;;;;;8.98;38.57;100036.34;4293328;33;19996;-81
2021/12/20 13:02:20;;;;;;;;;;;;;;;8.30;40.18;100029.34;4285094;33;20026;-81
2021/12/20 13:04:48;;;;;;;;;;;;;;;8.22;39.98;100051.44;4264202;33;21238;-81
2021/12/20 13:07:16;;;;;;;;;;;;;;;8.37;39.77;100051.88;4259045;33;20019;-82
2021/12/20 13:09:45;;;;;;;;;;;;;;;8.16;40.45;100051.25;4238321;33;20792;-82
2021/12/20 13:12:16;;;;;;;;;;;;;;;8.66;39.36;100044.09;4252196;33;20012;-80
2021/12/20 13:15:04;;;;;;;;;;;;;;;8.19;40.22;100056.50;4247074;33;19982;-83
2021/12/20 13:17:39;;;;;;;;;;;;;;;8.68;39.41;100063.09;4242107;33;20454;-82
2021/12/20 13:20:23;;;;;;;;;;;;;;;7.88;40.43;100050.47;4244653;33;20010;-82
2021/12/20 13:22:56;;;;;;;;;;;;;;;8.32;39.75;100063.75;4234046;33;20015;-81